Aérodrome :
LOGIN :

S'inscrire | Disclaimer

   EN    FR    IT 

 










Légende :    VFR   VFR Marginal   IFR   IFR Intensif   IFR Très Intensif
Visi : 
Plafond : 
>= 8 km
>= 3000ft
5 à 8 km
1000 à 3000 ft
1500m à 5 km
500 à 1000 ft
800 à 1500m
200 à 500 ft
< 800m
< 200 ft
Symboles :   Orages  Brouillard  Fortes neiges  Fortes précipitations  Vent > 20 kt
SIGMETs :   Divers  Orages  Givrage  Turbulence  Onde Orograph.  Cendres Volcan.







- Altitude de l'aérodrome : 370 ft


EBBE - Beauvechain AB

DERNIER METAR :
  • 230755Z 23011KT 9999 FEW015 SCT040 BKN250 19/14 Q1016 BLU BLU TEMPO WHT

METARs EXPIRÉS :
  • 230725Z 23011KT 9999 FEW015 BKN040 18/14 Q1016 BLU BLU TEMPO WHT
  • 230716Z 24010KT 9999 FEW015 BKN040 18/14 Q1016 BLU BLU TEMPO WHT
  • 230655Z 24009KT 9999 FEW030 BKN040 18/14 Q1016 BLU BLU
  • 230625Z 23009KT 9999 FEW030 BKN040 17/14 Q1016 BLU BLU
  • 230555Z 23009KT 9999 FEW030 BKN040 17/14 Q1016 BLU BLU
  • 230525Z 23009KT 9999 BKN040 16/14 Q1016 BLU BLU

TAF TAF EBBE
Valide du 23 à 07h jusqu'au 23 à 16h UTC


230541Z 2307/2316 24010KT 9999 FEW020 BKN040
Pas de NOTAMs connus pour ce terrain.



MET'MAP, la Météo Aéronautique d'un coup d'oeil ! - Copyright ORBIFLY Décembre 2007 - Disclaimer

ORBIFLY MET'MAP TEAM :

Programmation & Développement : Alexandra Zaïnal
Conception & Développement : Baudouin d'Aumeries
Co-Programmation & Développement : Marc-Olivier Méhu
Soutien technique & logistique : Manuel Goepfert

Contact : metmap@orbifly.com




SOURCES & CREDITS :

   NOAA